x

Santa Monica Basin - 33nm Wsw Of Santa Monica, Ca (46025) Wave Buoy

5:50 - Fri 5th Feb 2016 All times are PST. -8 hours from GMT.

  • Sig Wave height 3.3ft
  • Swell Direction
  • Peak Period 16s
  • Average Period 7s
  • Wind
    13mph, 16mph gusts
  • Sea Temp 59°f
  • Aire Temp 60°f
  • Sea Pressure 1024.8mb
  • Santa Monica Basin - 33nm Wsw Of Santa Monica, Ca
  • Santa Monica Basin - 33nm Wsw Of Santa Monica, Ca

More Historic Weather Station data

Upgrade to MSW Pro to gain access to the past 30 days of data for over 8000 Wavebouys and Weather Stations around the globe.

Join Pro

Comparision Forecast

View Surf forecast
   
vie 02/05 5:50 3.5ft 16s 7s 13 16 mph 1024.8mb 59f 60f
4:50 3.5ft 16s 9s 11 13 mph 1024.6mb 60f 61f
3:50 3.5ft 15s 9s 11 13 mph 1024.5mb 60f 61f
2:50 3.5ft 16s 9s 7 9 mph 1024.8mb 60f 62f
1:50 4.5ft 16s 10s 7
mph
1025.5mb 60f 64f
12:50 4ft 15s 9s 4 7 mph 1026.2mb 59f 61f
11:50 3.5ft 16s 9s 2
mph
1027.1mb 60f 60f
10:50 4ft 16s 9s 2 4 mph 1027.4mb 59f 60f
9:50 4.5ft 16s 10s 2 4 mph 1027.5mb 58f 60f
8:50 3.5ft 17s 8s 7 9 mph 1027.2mb 58f 60f
7:50 4.5ft 16s 9s 7 9 mph 1026.6mb 58f 61f
6:50 5ft 16s 9s 4 7 mph 1026.2mb 58f 60f
5:50 4.5ft 16s 9s 4
mph
1025.8mb 58f 59f
4:50 5ft 17s 9s 2
mph
1025.2mb 58f 59f
3:50 4.5ft 16s 8s 2 4 mph 1025.2mb 58f 59f
2:50 4.5ft 16s 8s 2 4 mph 1025.3mb 58f 59f
1:50 4ft 16s 7s 7 9 mph 1025mb 58f 60f
12:50 4ft 17s 8s 7
mph
1024.8mb 58f 61f
jue 02/04 11:50 4ft 17s 8s 4 7 mph 1025.1mb 58f 60f
10:50 3.5ft 17s 7s 7 9 mph 1025mb 58f 60f
9:50 4ft 19s 7s 11 13 mph 1024.8mb 58f 59f
8:50 4ft 17s 6s 16 18 mph 1024.5mb 58f 58f
7:50 4ft 19s 6s 18 22 mph 1024.2mb 58f 58f
6:50 4ft 17s 5s 20 22 mph 1024mb 58f 58f
5:50 4.5ft 17s 6s 16 20 mph 1024.2mb 58f 58f
4:50 3.5ft 17s 5s 16 18 mph 1023.7mb 59f 59f
3:50 3.5ft 17s 8s 16 18 mph 1023.9mb 59f 59f
2:50 3ft 17s 9s 9 11 mph 1024.5mb 59f 58f
1:50 3ft 17s 9s 9
mph
1024.9mb 59f 59f
12:50 2.5ft 15s 7s 9 11 mph 1026mb 59f 58f
11:50 3ft 16s 8s 4 7 mph 1026.9mb 60f 58f
10:50 3ft 16s 7s 2
mph
1027.5mb 59f 58f
9:50 2.5ft 16s 7s 2
mph
1027.9mb 58f 58f
8:50 2.5ft 16s 7s  -  2 mph 1027.6mb 58f 58f
7:50 2.5ft 16s 6s 2 4 mph 1027.3mb 58f 58f
6:50 2.5ft 16s 6s 2 4 mph 1027mb 58f 57f
5:50 2.5ft 16s 6s 4
mph
1026.6mb 58f 57f
4:50 2ft 16s 5s 4
mph
1026.8mb 58f 57f
3:50 2.5ft 16s 5s 4
mph
1026.9mb 58f 57f
2:50 2.5ft 16s 4s 11 13 mph 1027.2mb 58f 56f
1:50 2.5ft 4s 4s 13 18 mph 1027.6mb 58f 57f
12:50 2.5ft 13s 4s 18 22 mph 1027.9mb 58f 57f
mié 02/03 11:50 2.5ft 4s 4s 16 20 mph 1028.2mb 58f 57f
10:50 2.5ft 13s 4s 16 18 mph 1028.3mb 58f 57f
9:50 2.5ft 13s 5s 16 18 mph 1028.5mb 58f 56f
8:50 2.5ft 12s 5s 13 16 mph 1028.4mb 58f 57f
7:50 2ft 13s 5s 11 13 mph 1028.3mb 58f 57f
6:50 2ft 14s 5s 11 13 mph 1027.8mb 58f 57f
5:50 2ft 13s 6s 11 13 mph 1027.2mb 58f 56f
4:50 2ft 12s 6s 9 11 mph 1026.7mb 59f 57f
3:50 2ft 12s 6s 7 9 mph 1026.4mb 59f 57f
2:50 2.5ft 7s 6s 7 9 mph 1026.8mb 59f 57f
1:50 2.5ft 12s 5s 4 7 mph 1027.1mb 59f 57f
12:50 2.5ft 13s 5s 7 9 mph 1027.6mb 58f 57f
11:50 2.5ft 7s 5s 7 9 mph 1028.2mb 58f 56f
10:50 2.5ft 13s 5s 9 11 mph 1028.7mb 58f 55f
9:50 2.5ft 8s 5s 9 11 mph 1028.6mb 58f 56f
8:50 2.5ft 11s 5s 9 11 mph 1028mb 58f 55f
7:50 2.5ft 13s 5s 9 11 mph 1027.1mb 58f 55f
6:50 2.5ft 13s 5s 11 13 mph 1026mb 58f 55f
5:50 3.5ft 13s 5s 11 13 mph 1025.2mb 58f 55f
4:50 3.5ft 6s 5s 11 13 mph 1024.6mb 58f 55f
3:50 3.5ft 7s 5s 11 13 mph 1024.3mb 58f 55f
2:50 3.5ft 7s 5s 16 18 mph 1024.1mb 58f 56f
1:50 4ft 7s 5s 7 9 mph 1024.2mb 58f 55f
12:50 3.5ft 6s 5s 7
mph
1024.2mb 58f 55f
mar 02/02 11:50 4ft 6s 5s 11 13 mph 1023.8mb 58f 56f
10:50 4ft 6s 5s 18 20 mph 1023.5mb 58f 55f
8:50 5ft 5s 5s 16 20 mph 1022.9mb 58f 55f
7:50  -   -   -  20 25 mph 1022.5mb 58f 55f
6:50 7ft 6s 5s 27 31 mph 1022mb 58f 55f
5:50 7.5ft 7s 5s 29 36 mph 1021.6mb 58f 56f
4:50 7ft 7s 5s 25 29 mph 1021.4mb 58f 57f
3:50 6ft 6s 5s 22 27 mph 1021.6mb 58f 56f
2:50 5ft 6s 5s 20 25 mph 1021.7mb 58f 57f
1:50 4.5ft 6s 5s 20 25 mph 1022mb 58f 56f
12:50 4.5ft 6s 6s 11 16 mph 1022.8mb 58f 56f
11:50 4.5ft 8s 6s 7 11 mph 1023.6mb 58f 54f
10:50 4.5ft 8s 6s 9 11 mph 1024.5mb 58f 53f
9:50 4ft 13s 6s 9
mph
1024.4mb 58f 53f
8:50 4.5ft 11s 6s 9 11 mph 1024.3mb 58f 53f
7:50 4ft 9s 6s 9 11 mph 1023.9mb 58f 53f
6:50 4ft 11s 6s 11 13 mph 1023.5mb 58f 53f
5:50 4ft 11s 6s 11 13 mph 1022.6mb 58f 53f
4:50 4.5ft 8s 6s 11
mph
1022.2mb 58f 53f
3:50 4.5ft 13s 6s 9 11 mph 1021.7mb 58f 54f